sensor_id;sensor_type;location;lat;lon;timestamp;P1;durP1;ratioP1;P2;durP2;ratioP2
42066;SDS011;27734;47.028;28.820;2023-01-15T00:01:19;72.83;;;28.43;;
42066;SDS011;27734;47.028;28.820;2023-01-15T00:03:53;78.17;;;29.60;;
42066;SDS011;27734;47.028;28.820;2023-01-15T00:06:26;80.40;;;29.47;;
42066;SDS011;27734;47.028;28.820;2023-01-15T00:08:58;79.43;;;29.50;;
42066;SDS011;27734;47.028;28.820;2023-01-15T00:11:29;79.50;;;29.77;;
42066;SDS011;27734;47.028;28.820;2023-01-15T00:14:00;80.47;;;29.57;;
42066;SDS011;27734;47.028;28.820;2023-01-15T00:16:32;79.27;;;28.60;;
42066;SDS011;27734;47.028;28.820;2023-01-15T00:19:03;80.63;;;30.77;;
42066;SDS011;27734;47.028;28.820;2023-01-15T00:21:37;74.03;;;29.67;;
42066;SDS011;27734;47.028;28.820;2023-01-15T00:24:09;71.53;;;32.07;;
42066;SDS011;27734;47.028;28.820;2023-01-15T00:26:58;69.17;;;30.27;;
42066;SDS011;27734;47.028;28.820;2023-01-15T00:29:48;70.27;;;29.90;;
42066;SDS011;27734;47.028;28.820;2023-01-15T00:32:19;69.23;;;30.43;;
42066;SDS011;27734;47.028;28.820;2023-01-15T00:34:50;71.63;;;31.53;;
42066;SDS011;27734;47.028;28.820;2023-01-15T00:37:21;72.93;;;32.93;;
42066;SDS011;27734;47.028;28.820;2023-01-15T00:39:53;73.43;;;31.90;;
42066;SDS011;27734;47.028;28.820;2023-01-15T00:42:24;68.40;;;30.90;;
42066;SDS011;27734;47.028;28.820;2023-01-15T00:44:55;70.77;;;32.20;;
42066;SDS011;27734;47.028;28.820;2023-01-15T00:47:33;72.80;;;31.80;;
42066;SDS011;27734;47.028;28.820;2023-01-15T00:50:06;68.93;;;31.33;;
42066;SDS011;27734;47.028;28.820;2023-01-15T00:52:40;63.23;;;26.93;;
42066;SDS011;27734;47.028;28.820;2023-01-15T00:55:11;62.05;;;28.55;;
42066;SDS011;27734;47.028;28.820;2023-01-15T00:57:42;64.77;;;29.53;;
42066;SDS011;27734;47.028;28.820;2023-01-15T01:02:46;65.73;;;30.00;;
42066;SDS011;27734;47.028;28.820;2023-01-15T01:05:17;64.50;;;29.30;;
42066;SDS011;27734;47.028;28.820;2023-01-15T01:07:48;67.03;;;28.23;;
42066;SDS011;27734;47.028;28.820;2023-01-15T01:10:20;62.30;;;28.50;;
42066;SDS011;27734;47.028;28.820;2023-01-15T01:12:52;59.33;;;28.30;;
42066;SDS011;27734;47.028;28.820;2023-01-15T01:15:23;63.03;;;28.23;;
42066;SDS011;27734;47.028;28.820;2023-01-15T01:17:55;63.67;;;29.00;;
42066;SDS011;27734;47.028;28.820;2023-01-15T01:20:26;59.83;;;28.33;;
42066;SDS011;27734;47.028;28.820;2023-01-15T01:22:57;57.80;;;27.97;;
42066;SDS011;27734;47.028;28.820;2023-01-15T01:25:29;61.43;;;28.50;;
42066;SDS011;27734;47.028;28.820;2023-01-15T01:28:00;59.17;;;27.77;;
42066;SDS011;27734;47.028;28.820;2023-01-15T01:30:31;62.00;;;30.43;;
42066;SDS011;27734;47.028;28.820;2023-01-15T01:33:02;66.40;;;30.73;;
42066;SDS011;27734;47.028;28.820;2023-01-15T01:35:34;69.73;;;30.23;;
42066;SDS011;27734;47.028;28.820;2023-01-15T01:38:05;65.10;;;30.00;;
42066;SDS011;27734;47.028;28.820;2023-01-15T01:40:38;59.50;;;27.90;;
42066;SDS011;27734;47.028;28.820;2023-01-15T01:43:11;62.73;;;29.67;;
42066;SDS011;27734;47.028;28.820;2023-01-15T01:45:48;62.13;;;27.20;;
42066;SDS011;27734;47.028;28.820;2023-01-15T01:48:20;66.17;;;27.50;;
42066;SDS011;27734;47.028;28.820;2023-01-15T01:50:57;61.73;;;27.40;;
42066;SDS011;27734;47.028;28.820;2023-01-15T01:53:30;58.63;;;26.33;;
42066;SDS011;27734;47.028;28.820;2023-01-15T01:56:02;57.83;;;27.43;;
42066;SDS011;27734;47.028;28.820;2023-01-15T01:58:35;55.88;;;25.45;;
42066;SDS011;27734;47.028;28.820;2023-01-15T02:01:07;56.17;;;25.00;;
42066;SDS011;27734;47.028;28.820;2023-01-15T02:03:39;53.20;;;23.90;;
42066;SDS011;27734;47.028;28.820;2023-01-15T02:06:10;50.57;;;24.03;;
42066;SDS011;27734;47.028;28.820;2023-01-15T02:08:43;51.80;;;22.80;;
42066;SDS011;27734;47.028;28.820;2023-01-15T02:11:15;53.10;;;24.00;;
42066;SDS011;27734;47.028;28.820;2023-01-15T02:13:52;56.33;;;25.57;;
42066;SDS011;27734;47.028;28.820;2023-01-15T02:16:27;57.23;;;25.40;;
42066;SDS011;27734;47.028;28.820;2023-01-15T02:19:08;54.27;;;25.77;;
42066;SDS011;27734;47.028;28.820;2023-01-15T02:21:52;58.67;;;26.40;;
42066;SDS011;27734;47.028;28.820;2023-01-15T02:24:33;56.93;;;25.63;;
42066;SDS011;27734;47.028;28.820;2023-01-15T02:27:13;50.43;;;21.60;;
42066;SDS011;27734;47.028;28.820;2023-01-15T02:29:50;57.97;;;24.10;;
42066;SDS011;27734;47.028;28.820;2023-01-15T02:32:28;58.20;;;24.87;;
42066;SDS011;27734;47.028;28.820;2023-01-15T02:35:04;53.80;;;24.53;;
42066;SDS011;27734;47.028;28.820;2023-01-15T02:37:44;56.20;;;24.30;;
42066;SDS011;27734;47.028;28.820;2023-01-15T02:40:19;55.30;;;25.23;;
42066;SDS011;27734;47.028;28.820;2023-01-15T02:42:53;58.70;;;25.73;;
42066;SDS011;27734;47.028;28.820;2023-01-15T02:45:27;58.37;;;26.17;;
42066;SDS011;27734;47.028;28.820;2023-01-15T02:48:06;48.37;;;23.90;;
42066;SDS011;27734;47.028;28.820;2023-01-15T02:50:41;52.67;;;25.93;;
42066;SDS011;27734;47.028;28.820;2023-01-15T02:53:19;54.73;;;25.57;;
42066;SDS011;27734;47.028;28.820;2023-01-15T02:55:56;50.63;;;24.10;;
42066;SDS011;27734;47.028;28.820;2023-01-15T02:58:35;50.13;;;23.53;;
42066;SDS011;27734;47.028;28.820;2023-01-15T03:03:43;44.90;;;20.70;;
42066;SDS011;27734;47.028;28.820;2023-01-15T03:06:21;41.27;;;20.27;;
42066;SDS011;27734;47.028;28.820;2023-01-15T03:09:04;44.83;;;20.20;;
42066;SDS011;27734;47.028;28.820;2023-01-15T03:11:38;45.87;;;21.57;;
42066;SDS011;27734;47.028;28.820;2023-01-15T03:14:19;43.57;;;20.83;;
42066;SDS011;27734;47.028;28.820;2023-01-15T03:16:57;48.10;;;22.27;;
42066;SDS011;27734;47.028;28.820;2023-01-15T03:19:35;41.57;;;19.93;;
42066;SDS011;27734;47.028;28.820;2023-01-15T03:22:16;39.87;;;19.07;;
42066;SDS011;27734;47.028;28.820;2023-01-15T03:24:52;40.60;;;18.87;;
42066;SDS011;27734;47.028;28.820;2023-01-15T03:27:29;40.43;;;17.93;;
42066;SDS011;27734;47.028;28.820;2023-01-15T03:30:04;37.50;;;16.80;;
42066;SDS011;27734;47.028;28.820;2023-01-15T03:32:38;41.63;;;18.13;;
42066;SDS011;27734;47.028;28.820;2023-01-15T03:38:13;41.93;;;18.40;;
42066;SDS011;27734;47.028;28.820;2023-01-15T03:40:51;38.53;;;18.63;;
42066;SDS011;27734;47.028;28.820;2023-01-15T03:43:28;38.27;;;17.33;;
42066;SDS011;27734;47.028;28.820;2023-01-15T03:49:20;42.70;;;19.77;;
42066;SDS011;27734;47.028;28.820;2023-01-15T03:52:04;43.70;;;19.43;;
42066;SDS011;27734;47.028;28.820;2023-01-15T03:54:41;46.43;;;19.83;;
42066;SDS011;27734;47.028;28.820;2023-01-15T03:57:20;45.20;;;18.50;;
42066;SDS011;27734;47.028;28.820;2023-01-15T03:59:58;45.37;;;18.43;;
42066;SDS011;27734;47.028;28.820;2023-01-15T04:02:43;44.63;;;18.30;;
42066;SDS011;27734;47.028;28.820;2023-01-15T04:05:19;40.60;;;16.33;;
42066;SDS011;27734;47.028;28.820;2023-01-15T04:07:50;46.37;;;18.47;;
42066;SDS011;27734;47.028;28.820;2023-01-15T04:10:23;41.67;;;17.47;;
42066;SDS011;27734;47.028;28.820;2023-01-15T04:12:54;42.30;;;16.80;;
42066;SDS011;27734;47.028;28.820;2023-01-15T04:15:26;40.67;;;16.23;;
42066;SDS011;27734;47.028;28.820;2023-01-15T04:17:57;39.63;;;15.93;;
42066;SDS011;27734;47.028;28.820;2023-01-15T04:20:31;39.47;;;17.50;;
42066;SDS011;27734;47.028;28.820;2023-01-15T04:23:02;37.13;;;15.37;;
42066;SDS011;27734;47.028;28.820;2023-01-15T04:25:33;41.43;;;17.93;;
42066;SDS011;27734;47.028;28.820;2023-01-15T04:28:05;37.87;;;16.57;;
42066;SDS011;27734;47.028;28.820;2023-01-15T04:30:37;40.97;;;17.70;;
42066;SDS011;27734;47.028;28.820;2023-01-15T04:33:10;44.50;;;18.77;;
42066;SDS011;27734;47.028;28.820;2023-01-15T04:35:41;48.87;;;19.07;;
42066;SDS011;27734;47.028;28.820;2023-01-15T04:38:14;41.37;;;17.13;;
42066;SDS011;27734;47.028;28.820;2023-01-15T04:40:46;39.97;;;16.60;;
42066;SDS011;27734;47.028;28.820;2023-01-15T04:43:35;36.07;;;14.30;;
42066;SDS011;27734;47.028;28.820;2023-01-15T04:46:21;34.00;;;14.43;;
42066;SDS011;27734;47.028;28.820;2023-01-15T04:48:53;33.23;;;13.90;;
42066;SDS011;27734;47.028;28.820;2023-01-15T04:51:24;35.45;;;14.55;;
42066;SDS011;27734;47.028;28.820;2023-01-15T04:53:55;39.07;;;15.53;;
42066;SDS011;27734;47.028;28.820;2023-01-15T04:56:28;36.73;;;14.33;;
42066;SDS011;27734;47.028;28.820;2023-01-15T04:59:00;36.43;;;13.73;;
42066;SDS011;27734;47.028;28.820;2023-01-15T05:01:32;32.63;;;13.93;;
42066;SDS011;27734;47.028;28.820;2023-01-15T05:04:03;32.53;;;12.07;;
42066;SDS011;27734;47.028;28.820;2023-01-15T05:06:35;31.53;;;13.43;;
42066;SDS011;27734;47.028;28.820;2023-01-15T05:09:06;30.47;;;13.00;;
42066;SDS011;27734;47.028;28.820;2023-01-15T05:11:38;31.37;;;11.53;;
42066;SDS011;27734;47.028;28.820;2023-01-15T05:14:09;30.07;;;12.07;;
42066;SDS011;27734;47.028;28.820;2023-01-15T05:16:40;30.47;;;11.73;;
42066;SDS011;27734;47.028;28.820;2023-01-15T05:19:12;31.40;;;12.87;;
42066;SDS011;27734;47.028;28.820;2023-01-15T05:21:43;29.13;;;11.13;;
42066;SDS011;27734;47.028;28.820;2023-01-15T05:24:15;29.10;;;11.87;;
42066;SDS011;27734;47.028;28.820;2023-01-15T05:26:47;28.57;;;11.67;;
42066;SDS011;27734;47.028;28.820;2023-01-15T05:29:18;30.90;;;11.53;;
42066;SDS011;27734;47.028;28.820;2023-01-15T05:31:50;32.80;;;12.20;;
42066;SDS011;27734;47.028;28.820;2023-01-15T05:34:21;30.97;;;12.03;;
42066;SDS011;27734;47.028;28.820;2023-01-15T05:36:52;32.63;;;12.43;;
42066;SDS011;27734;47.028;28.820;2023-01-15T05:39:23;30.60;;;12.37;;
42066;SDS011;27734;47.028;28.820;2023-01-15T05:41:55;33.50;;;12.77;;
42066;SDS011;27734;47.028;28.820;2023-01-15T05:44:27;32.87;;;12.30;;
42066;SDS011;27734;47.028;28.820;2023-01-15T05:47:00;23.62;;;9.30;;
42066;SDS011;27734;47.028;28.820;2023-01-15T05:49:34;30.33;;;12.10;;
42066;SDS011;27734;47.028;28.820;2023-01-15T05:52:06;30.57;;;11.83;;
42066;SDS011;27734;47.028;28.820;2023-01-15T05:54:37;32.55;;;11.95;;
42066;SDS011;27734;47.028;28.820;2023-01-15T05:57:09;30.70;;;11.80;;
42066;SDS011;27734;47.028;28.820;2023-01-15T05:59:41;30.00;;;12.53;;
42066;SDS011;27734;47.028;28.820;2023-01-15T06:02:12;32.93;;;12.57;;
42066;SDS011;27734;47.028;28.820;2023-01-15T06:04:44;34.80;;;13.37;;
42066;SDS011;27734;47.028;28.820;2023-01-15T06:07:15;30.90;;;12.30;;
42066;SDS011;27734;47.028;28.820;2023-01-15T06:09:46;31.27;;;11.70;;
42066;SDS011;27734;47.028;28.820;2023-01-15T06:12:17;32.87;;;12.93;;
42066;SDS011;27734;47.028;28.820;2023-01-15T06:14:48;30.47;;;11.73;;
42066;SDS011;27734;47.028;28.820;2023-01-15T06:17:20;30.33;;;11.57;;
42066;SDS011;27734;47.028;28.820;2023-01-15T06:19:51;34.97;;;12.57;;
42066;SDS011;27734;47.028;28.820;2023-01-15T06:22:22;30.47;;;11.43;;
42066;SDS011;27734;47.028;28.820;2023-01-15T06:24:53;31.43;;;11.67;;
42066;SDS011;27734;47.028;28.820;2023-01-15T06:27:25;34.13;;;12.43;;
42066;SDS011;27734;47.028;28.820;2023-01-15T06:29:56;32.33;;;12.07;;
42066;SDS011;27734;47.028;28.820;2023-01-15T06:32:28;31.37;;;11.67;;
42066;SDS011;27734;47.028;28.820;2023-01-15T06:35:06;31.17;;;11.37;;
42066;SDS011;27734;47.028;28.820;2023-01-15T06:37:38;32.30;;;11.50;;
42066;SDS011;27734;47.028;28.820;2023-01-15T06:40:10;32.80;;;11.83;;
42066;SDS011;27734;47.028;28.820;2023-01-15T06:42:42;35.87;;;12.40;;
42066;SDS011;27734;47.028;28.820;2023-01-15T06:45:32;34.03;;;11.40;;
42066;SDS011;27734;47.028;28.820;2023-01-15T06:48:25;34.33;;;13.17;;
42066;SDS011;27734;47.028;28.820;2023-01-15T06:50:57;34.20;;;13.50;;
42066;SDS011;27734;47.028;28.820;2023-01-15T06:53:28;37.53;;;13.23;;
42066;SDS011;27734;47.028;28.820;2023-01-15T06:55:59;33.80;;;11.90;;
42066;SDS011;27734;47.028;28.820;2023-01-15T06:58:30;35.27;;;12.73;;
42066;SDS011;27734;47.028;28.820;2023-01-15T07:01:06;34.87;;;11.93;;
42066;SDS011;27734;47.028;28.820;2023-01-15T07:03:39;30.73;;;11.00;;
42066;SDS011;27734;47.028;28.820;2023-01-15T07:06:11;28.70;;;10.43;;
42066;SDS011;27734;47.028;28.820;2023-01-15T07:08:43;32.37;;;11.27;;
42066;SDS011;27734;47.028;28.820;2023-01-15T07:11:14;35.60;;;12.43;;
42066;SDS011;27734;47.028;28.820;2023-01-15T07:13:45;33.00;;;11.33;;
42066;SDS011;27734;47.028;28.820;2023-01-15T07:16:17;31.77;;;11.00;;
42066;SDS011;27734;47.028;28.820;2023-01-15T07:18:55;28.23;;;10.23;;
42066;SDS011;27734;47.028;28.820;2023-01-15T07:21:28;30.60;;;10.77;;
42066;SDS011;27734;47.028;28.820;2023-01-15T07:23:59;27.80;;;9.53;;
42066;SDS011;27734;47.028;28.820;2023-01-15T07:26:30;29.43;;;9.97;;
42066;SDS011;27734;47.028;28.820;2023-01-15T07:29:02;28.23;;;10.43;;
42066;SDS011;27734;47.028;28.820;2023-01-15T07:31:33;27.97;;;10.00;;
42066;SDS011;27734;47.028;28.820;2023-01-15T07:34:05;27.67;;;10.10;;
42066;SDS011;27734;47.028;28.820;2023-01-15T07:36:36;26.83;;;9.67;;
42066;SDS011;27734;47.028;28.820;2023-01-15T07:39:09;28.90;;;10.03;;
42066;SDS011;27734;47.028;28.820;2023-01-15T07:41:40;30.03;;;10.43;;
42066;SDS011;27734;47.028;28.820;2023-01-15T07:44:30;29.60;;;10.37;;
42066;SDS011;27734;47.028;28.820;2023-01-15T07:47:20;26.10;;;9.85;;
42066;SDS011;27734;47.028;28.820;2023-01-15T07:50:12;28.20;;;10.03;;
42066;SDS011;27734;47.028;28.820;2023-01-15T07:52:44;30.23;;;11.07;;
42066;SDS011;27734;47.028;28.820;2023-01-15T07:55:16;27.73;;;10.43;;
42066;SDS011;27734;47.028;28.820;2023-01-15T07:57:48;30.00;;;10.93;;
42066;SDS011;27734;47.028;28.820;2023-01-15T08:00:21;28.07;;;9.77;;
42066;SDS011;27734;47.028;28.820;2023-01-15T08:02:53;31.50;;;11.53;;
42066;SDS011;27734;47.028;28.820;2023-01-15T08:05:24;26.50;;;10.43;;
42066;SDS011;27734;47.028;28.820;2023-01-15T08:07:55;26.53;;;10.23;;
42066;SDS011;27734;47.028;28.820;2023-01-15T08:10:26;24.03;;;9.10;;
42066;SDS011;27734;47.028;28.820;2023-01-15T08:12:58;26.35;;;9.95;;
42066;SDS011;27734;47.028;28.820;2023-01-15T08:15:47;23.30;;;9.00;;
42066;SDS011;27734;47.028;28.820;2023-01-15T08:18:18;23.53;;;9.03;;
42066;SDS011;27734;47.028;28.820;2023-01-15T08:20:49;23.03;;;8.10;;
42066;SDS011;27734;47.028;28.820;2023-01-15T08:23:21;20.80;;;7.90;;
42066;SDS011;27734;47.028;28.820;2023-01-15T08:25:52;21.80;;;7.70;;
42066;SDS011;27734;47.028;28.820;2023-01-15T08:28:23;20.30;;;7.53;;
42066;SDS011;27734;47.028;28.820;2023-01-15T08:30:54;19.35;;;7.00;;
42066;SDS011;27734;47.028;28.820;2023-01-15T08:33:26;19.17;;;7.10;;
42066;SDS011;27734;47.028;28.820;2023-01-15T08:35:57;21.10;;;7.77;;
42066;SDS011;27734;47.028;28.820;2023-01-15T08:38:28;20.47;;;7.37;;
42066;SDS011;27734;47.028;28.820;2023-01-15T08:40:59;19.40;;;7.37;;
42066;SDS011;27734;47.028;28.820;2023-01-15T08:43:31;20.73;;;7.43;;
42066;SDS011;27734;47.028;28.820;2023-01-15T08:46:03;19.27;;;6.80;;
42066;SDS011;27734;47.028;28.820;2023-01-15T08:48:35;20.17;;;7.20;;
42066;SDS011;27734;47.028;28.820;2023-01-15T08:51:07;19.37;;;7.27;;
42066;SDS011;27734;47.028;28.820;2023-01-15T08:53:39;19.17;;;7.23;;
42066;SDS011;27734;47.028;28.820;2023-01-15T08:56:12;19.13;;;7.27;;
42066;SDS011;27734;47.028;28.820;2023-01-15T08:58:44;20.50;;;8.15;;
42066;SDS011;27734;47.028;28.820;2023-01-15T09:01:15;20.60;;;7.67;;
42066;SDS011;27734;47.028;28.820;2023-01-15T09:03:47;21.30;;;8.00;;
42066;SDS011;27734;47.028;28.820;2023-01-15T09:06:18;20.60;;;7.50;;
42066;SDS011;27734;47.028;28.820;2023-01-15T09:08:49;21.47;;;7.87;;
42066;SDS011;27734;47.028;28.820;2023-01-15T09:11:20;20.23;;;7.17;;
42066;SDS011;27734;47.028;28.820;2023-01-15T09:13:52;21.97;;;8.07;;
42066;SDS011;27734;47.028;28.820;2023-01-15T09:16:23;23.53;;;8.93;;
42066;SDS011;27734;47.028;28.820;2023-01-15T09:18:54;24.63;;;9.13;;
42066;SDS011;27734;47.028;28.820;2023-01-15T09:21:26;22.23;;;8.00;;
42066;SDS011;27734;47.028;28.820;2023-01-15T09:23:57;22.83;;;8.40;;
42066;SDS011;27734;47.028;28.820;2023-01-15T09:26:30;23.93;;;8.17;;
42066;SDS011;27734;47.028;28.820;2023-01-15T09:29:03;21.93;;;8.03;;
42066;SDS011;27734;47.028;28.820;2023-01-15T09:31:35;22.87;;;8.53;;
42066;SDS011;27734;47.028;28.820;2023-01-15T09:34:07;19.73;;;7.63;;
42066;SDS011;27734;47.028;28.820;2023-01-15T09:36:38;20.20;;;7.10;;
42066;SDS011;27734;47.028;28.820;2023-01-15T09:39:09;22.67;;;8.73;;
42066;SDS011;27734;47.028;28.820;2023-01-15T09:41:57;20.17;;;7.23;;
42066;SDS011;27734;47.028;28.820;2023-01-15T09:44:38;18.90;;;6.93;;
42066;SDS011;27734;47.028;28.820;2023-01-15T09:47:20;19.43;;;7.37;;
42066;SDS011;27734;47.028;28.820;2023-01-15T09:49:59;20.83;;;7.90;;
42066;SDS011;27734;47.028;28.820;2023-01-15T09:52:49;18.45;;;7.25;;
42066;SDS011;27734;47.028;28.820;2023-01-15T09:55:34;17.40;;;6.73;;
42066;SDS011;27734;47.028;28.820;2023-01-15T09:58:12;21.70;;;7.63;;
42066;SDS011;27734;47.028;28.820;2023-01-15T10:00:46;18.53;;;7.57;;
42066;SDS011;27734;47.028;28.820;2023-01-15T10:03:22;17.77;;;6.97;;
42066;SDS011;27734;47.028;28.820;2023-01-15T10:06:00;18.43;;;7.27;;
42066;SDS011;27734;47.028;28.820;2023-01-15T10:08:39;20.47;;;8.30;;
42066;SDS011;27734;47.028;28.820;2023-01-15T10:11:21;21.50;;;8.00;;
42066;SDS011;27734;47.028;28.820;2023-01-15T10:17:14;20.60;;;8.20;;
42066;SDS011;27734;47.028;28.820;2023-01-15T10:19:53;23.30;;;7.47;;
42066;SDS011;27734;47.028;28.820;2023-01-15T10:22:29;20.10;;;7.70;;
42066;SDS011;27734;47.028;28.820;2023-01-15T10:25:15;19.13;;;6.97;;
42066;SDS011;27734;47.028;28.820;2023-01-15T10:27:50;19.97;;;7.60;;
42066;SDS011;27734;47.028;28.820;2023-01-15T10:30:26;18.80;;;6.73;;
42066;SDS011;27734;47.028;28.820;2023-01-15T10:33:09;21.47;;;7.60;;
42066;SDS011;27734;47.028;28.820;2023-01-15T10:35:57;20.07;;;7.90;;
42066;SDS011;27734;47.028;28.820;2023-01-15T10:38:34;25.70;;;9.23;;
42066;SDS011;27734;47.028;28.820;2023-01-15T10:41:20;20.80;;;8.20;;
42066;SDS011;27734;47.028;28.820;2023-01-15T10:44:01;24.20;;;8.83;;
42066;SDS011;27734;47.028;28.820;2023-01-15T10:46:39;23.50;;;8.25;;
42066;SDS011;27734;47.028;28.820;2023-01-15T10:49:13;22.90;;;8.85;;
42066;SDS011;27734;47.028;28.820;2023-01-15T10:54:21;20.60;;;7.87;;
42066;SDS011;27734;47.028;28.820;2023-01-15T10:56:59;23.50;;;9.67;;
42066;SDS011;27734;47.028;28.820;2023-01-15T10:59:40;23.30;;;9.27;;
42066;SDS011;27734;47.028;28.820;2023-01-15T11:02:24;23.27;;;8.67;;
42066;SDS011;27734;47.028;28.820;2023-01-15T11:04:58;22.13;;;7.87;;
42066;SDS011;27734;47.028;28.820;2023-01-15T11:07:33;21.40;;;8.30;;
42066;SDS011;27734;47.028;28.820;2023-01-15T11:10:09;25.73;;;9.10;;
42066;SDS011;27734;47.028;28.820;2023-01-15T11:12:47;23.33;;;8.90;;
42066;SDS011;27734;47.028;28.820;2023-01-15T11:15:40;23.63;;;9.00;;
42066;SDS011;27734;47.028;28.820;2023-01-15T11:18:34;23.33;;;8.47;;
42066;SDS011;27734;47.028;28.820;2023-01-15T11:21:26;26.63;;;10.23;;
42066;SDS011;27734;47.028;28.820;2023-01-15T11:23:58;25.00;;;8.70;;
42066;SDS011;27734;47.028;28.820;2023-01-15T11:26:31;22.83;;;8.70;;
42066;SDS011;27734;47.028;28.820;2023-01-15T11:29:11;25.83;;;9.63;;
42066;SDS011;27734;47.028;28.820;2023-01-15T11:31:48;22.73;;;8.30;;
42066;SDS011;27734;47.028;28.820;2023-01-15T11:34:19;22.57;;;9.00;;
42066;SDS011;27734;47.028;28.820;2023-01-15T11:37:01;23.87;;;8.73;;
42066;SDS011;27734;47.028;28.820;2023-01-15T11:39:33;21.27;;;7.80;;
42066;SDS011;27734;47.028;28.820;2023-01-15T11:42:05;25.00;;;9.60;;
42066;SDS011;27734;47.028;28.820;2023-01-15T11:45:10;22.13;;;8.67;;
42066;SDS011;27734;47.028;28.820;2023-01-15T11:48:01;22.37;;;8.50;;
42066;SDS011;27734;47.028;28.820;2023-01-15T11:51:17;24.87;;;8.70;;
42066;SDS011;27734;47.028;28.820;2023-01-15T11:53:50;24.37;;;8.73;;
42066;SDS011;27734;47.028;28.820;2023-01-15T11:56:32;21.33;;;8.93;;
42066;SDS011;27734;47.028;28.820;2023-01-15T11:59:09;22.23;;;9.50;;
42066;SDS011;27734;47.028;28.820;2023-01-15T12:01:48;24.27;;;9.93;;
42066;SDS011;27734;47.028;28.820;2023-01-15T12:04:28;25.23;;;9.50;;
42066;SDS011;27734;47.028;28.820;2023-01-15T12:07:02;22.83;;;9.33;;
42066;SDS011;27734;47.028;28.820;2023-01-15T12:09:38;22.70;;;8.63;;
42066;SDS011;27734;47.028;28.820;2023-01-15T12:12:23;21.13;;;8.30;;
42066;SDS011;27734;47.028;28.820;2023-01-15T12:15:13;23.17;;;8.57;;
42066;SDS011;27734;47.028;28.820;2023-01-15T12:18:03;22.65;;;8.55;;
42066;SDS011;27734;47.028;28.820;2023-01-15T12:20:56;15.18;;;6.60;;
42066;SDS011;27734;47.028;28.820;2023-01-15T12:26:34;23.83;;;7.27;;
42066;SDS011;27734;47.028;28.820;2023-01-15T12:29:12;20.10;;;7.87;;
42066;SDS011;27734;47.028;28.820;2023-01-15T12:31:51;19.30;;;7.25;;
42066;SDS011;27734;47.028;28.820;2023-01-15T12:34:30;21.43;;;8.33;;
42066;SDS011;27734;47.028;28.820;2023-01-15T12:37:12;18.83;;;7.77;;
42066;SDS011;27734;47.028;28.820;2023-01-15T12:39:51;22.83;;;8.40;;
42066;SDS011;27734;47.028;28.820;2023-01-15T12:42:26;21.17;;;7.60;;
42066;SDS011;27734;47.028;28.820;2023-01-15T12:45:14;20.23;;;7.83;;
42066;SDS011;27734;47.028;28.820;2023-01-15T12:47:50;19.63;;;8.30;;
42066;SDS011;27734;47.028;28.820;2023-01-15T12:50:28;23.33;;;8.80;;
42066;SDS011;27734;47.028;28.820;2023-01-15T12:53:08;24.17;;;9.17;;
42066;SDS011;27734;47.028;28.820;2023-01-15T12:55:46;21.80;;;8.87;;
42066;SDS011;27734;47.028;28.820;2023-01-15T12:58:30;24.67;;;9.87;;
42066;SDS011;27734;47.028;28.820;2023-01-15T13:01:09;27.63;;;10.43;;
42066;SDS011;27734;47.028;28.820;2023-01-15T13:03:50;22.90;;;9.57;;
42066;SDS011;27734;47.028;28.820;2023-01-15T13:06:28;24.07;;;9.23;;
42066;SDS011;27734;47.028;28.820;2023-01-15T13:09:01;26.47;;;10.27;;
42066;SDS011;27734;47.028;28.820;2023-01-15T13:11:38;23.37;;;9.23;;
42066;SDS011;27734;47.028;28.820;2023-01-15T13:14:10;22.47;;;9.20;;
42066;SDS011;27734;47.028;28.820;2023-01-15T13:16:46;26.70;;;10.40;;
42066;SDS011;27734;47.028;28.820;2023-01-15T13:19:28;26.40;;;9.50;;
42066;SDS011;27734;47.028;28.820;2023-01-15T13:22:06;22.77;;;9.23;;
42066;SDS011;27734;47.028;28.820;2023-01-15T13:24:55;27.27;;;10.47;;
42066;SDS011;27734;47.028;28.820;2023-01-15T13:27:50;27.30;;;10.43;;
42066;SDS011;27734;47.028;28.820;2023-01-15T13:30:36;26.90;;;10.20;;
42066;SDS011;27734;47.028;28.820;2023-01-15T13:33:23;26.40;;;10.83;;
42066;SDS011;27734;47.028;28.820;2023-01-15T13:36:00;25.43;;;10.17;;
42066;SDS011;27734;47.028;28.820;2023-01-15T13:38:38;28.70;;;11.23;;
42066;SDS011;27734;47.028;28.820;2023-01-15T13:41:13;24.80;;;10.70;;
42066;SDS011;27734;47.028;28.820;2023-01-15T13:44:13;29.17;;;10.77;;
42066;SDS011;27734;47.028;28.820;2023-01-15T13:46:56;27.87;;;10.60;;
42066;SDS011;27734;47.028;28.820;2023-01-15T13:49:32;28.57;;;11.00;;
42066;SDS011;27734;47.028;28.820;2023-01-15T13:52:06;24.93;;;10.30;;
42066;SDS011;27734;47.028;28.820;2023-01-15T13:54:50;27.32;;;10.18;;
42066;SDS011;27734;47.028;28.820;2023-01-15T13:57:25;25.73;;;10.37;;
42066;SDS011;27734;47.028;28.820;2023-01-15T14:00:03;25.05;;;10.20;;
42066;SDS011;27734;47.028;28.820;2023-01-15T14:02:49;27.13;;;10.40;;
42066;SDS011;27734;47.028;28.820;2023-01-15T14:05:28;26.63;;;10.67;;
42066;SDS011;27734;47.028;28.820;2023-01-15T14:08:12;25.07;;;9.57;;
42066;SDS011;27734;47.028;28.820;2023-01-15T14:10:45;27.63;;;10.93;;
42066;SDS011;27734;47.028;28.820;2023-01-15T14:16:16;28.77;;;11.17;;
42066;SDS011;27734;47.028;28.820;2023-01-15T14:19:01;30.00;;;11.75;;
42066;SDS011;27734;47.028;28.820;2023-01-15T14:21:57;34.83;;;12.90;;
42066;SDS011;27734;47.028;28.820;2023-01-15T14:24:50;31.33;;;12.10;;
42066;SDS011;27734;47.028;28.820;2023-01-15T14:27:37;31.23;;;12.10;;
42066;SDS011;27734;47.028;28.820;2023-01-15T14:30:25;30.97;;;12.10;;
42066;SDS011;27734;47.028;28.820;2023-01-15T14:33:16;29.30;;;12.07;;
42066;SDS011;27734;47.028;28.820;2023-01-15T14:35:54;31.70;;;12.80;;
42066;SDS011;27734;47.028;28.820;2023-01-15T14:38:25;36.60;;;13.30;;
42066;SDS011;27734;47.028;28.820;2023-01-15T14:40:58;33.57;;;13.70;;
42066;SDS011;27734;47.028;28.820;2023-01-15T14:43:34;30.20;;;12.53;;
42066;SDS011;27734;47.028;28.820;2023-01-15T14:46:12;31.87;;;14.10;;
42066;SDS011;27734;47.028;28.820;2023-01-15T14:48:50;36.43;;;16.23;;
42066;SDS011;27734;47.028;28.820;2023-01-15T14:51:23;36.83;;;14.73;;
42066;SDS011;27734;47.028;28.820;2023-01-15T14:53:57;35.17;;;14.63;;
42066;SDS011;27734;47.028;28.820;2023-01-15T14:56:31;34.88;;;14.53;;
42066;SDS011;27734;47.028;28.820;2023-01-15T14:59:07;32.17;;;13.67;;
42066;SDS011;27734;47.028;28.820;2023-01-15T15:01:48;37.80;;;14.90;;
42066;SDS011;27734;47.028;28.820;2023-01-15T15:04:22;33.37;;;14.73;;
42066;SDS011;27734;47.028;28.820;2023-01-15T15:07:02;36.77;;;15.13;;
42066;SDS011;27734;47.028;28.820;2023-01-15T15:09:39;34.43;;;13.17;;
42066;SDS011;27734;47.028;28.820;2023-01-15T15:12:30;40.03;;;16.00;;
42066;SDS011;27734;47.028;28.820;2023-01-15T15:15:10;35.33;;;14.80;;
42066;SDS011;27734;47.028;28.820;2023-01-15T15:17:48;35.60;;;14.33;;
42066;SDS011;27734;47.028;28.820;2023-01-15T15:20:30;34.90;;;14.13;;
42066;SDS011;27734;47.028;28.820;2023-01-15T15:23:14;34.48;;;12.60;;
42066;SDS011;27734;47.028;28.820;2023-01-15T15:25:51;33.67;;;12.57;;
42066;SDS011;27734;47.028;28.820;2023-01-15T15:28:27;33.07;;;11.50;;